Terminal Aerodrome Forecast
Issued by NWS Cleveland, OH

Home | Current Version | Previous Version | Graphics & Text | Print | Product List | Glossary On
Versions: 1 2 3 4 5 6 7 8 9 10 11 12 13 14 15 16 17 18 19 20 21 22 23 24 25 26 27 28
264
FTUS41 KCLE 271459 AAC
TAFCLE
TAF AMD
KCLE 271459Z 2715/2818 25005KT P6SM BKN150
     FM271800 33005KT P6SM SCT035 BKN100
     FM280000 03005KT P6SM BKN040
     FM280900 07005KT P6SM BKN035
     FM281300 06008KT P6SM BKN025=

USA.gov is the U.S. government's official web portal to all federal, state and local government web resources and services.